createdAt,value
2022-12-08T00:00:29.036Z,-0.14
2022-12-08T00:05:49.872Z,-0.24
2022-12-08T00:10:51.985Z,-0.25
2022-12-08T00:16:00.765Z,-0.08
2022-12-08T00:21:03.156Z,-0.11
2022-12-08T00:26:05.573Z,-0.25
2022-12-08T00:31:10.451Z,-0.18
2022-12-08T00:36:14.626Z,0.02
2022-12-08T00:41:39.964Z,0.14
2022-12-08T00:46:42.498Z,0.34
2022-12-08T00:51:44.824Z,0.33
2022-12-08T00:56:46.971Z,0.39
2022-12-08T01:01:49.161Z,0.46
2022-12-08T01:06:51.596Z,0.45
2022-12-08T01:11:53.705Z,0.23
2022-12-08T01:16:55.880Z,0.10
2022-12-08T01:21:58.083Z,-0.08
2022-12-08T01:27:00.163Z,-0.26
2022-12-08T01:32:02.483Z,-0.51
2022-12-08T01:37:04.570Z,-0.56
2022-12-08T01:42:10.198Z,-0.73
2022-12-08T01:47:12.373Z,-0.86
2022-12-08T01:52:20.563Z,-1.05
2022-12-08T01:57:34.027Z,-1.30
2022-12-08T02:02:49.615Z,-1.39
2022-12-08T02:07:52.264Z,-1.17
2022-12-08T02:12:58.164Z,-1.45
2022-12-08T02:18:19.744Z,-1.54
2022-12-08T02:23:45.378Z,-1.63
2022-12-08T02:29:02.567Z,-1.62
2022-12-08T02:34:10.643Z,-1.45
2022-12-08T02:39:54.312Z,-1.15
2022-12-08T02:45:11.902Z,-0.83
2022-12-08T02:50:15.649Z,-0.63
2022-12-08T02:55:28.064Z,-0.51
2022-12-08T03:00:53.539Z,-0.31
2022-12-08T03:06:01.523Z,-0.31
2022-12-08T03:11:20.410Z,-0.22
2022-12-08T03:16:27.428Z,-0.06
2022-12-08T03:21:32.920Z,0.09
2022-12-08T03:26:43.773Z,0.16
2022-12-08T03:31:56.146Z,0.21
2022-12-08T03:37:00.960Z,0.25
2022-12-08T03:42:03.091Z,0.36
2022-12-08T03:47:05.233Z,0.47
2022-12-08T03:52:07.304Z,0.48
2022-12-08T03:57:09.464Z,0.53
2022-12-08T04:02:11.601Z,0.52
2022-12-08T04:07:13.738Z,0.58
2022-12-08T04:12:15.888Z,0.65
2022-12-08T04:17:17.958Z,0.65
2022-12-08T04:22:20.090Z,0.73
2022-12-08T04:27:22.262Z,0.86
2022-12-08T04:32:24.336Z,0.95
2022-12-08T04:37:27.819Z,1.01
2022-12-08T04:42:30.004Z,1.01
2022-12-08T04:47:32.274Z,1.02
2022-12-08T04:52:34.699Z,0.99
2022-12-08T04:57:36.841Z,1.05
2022-12-08T05:02:39.277Z,1.07
2022-12-08T05:07:41.409Z,1.03
2022-12-08T05:12:43.552Z,1.07
2022-12-08T05:17:45.678Z,1.08
2022-12-08T05:22:47.977Z,1.06
2022-12-08T05:27:50.150Z,1.07
2022-12-08T05:32:56.657Z,1.09
2022-12-08T05:37:58.984Z,1.09
2022-12-08T05:43:01.122Z,1.14
2022-12-08T05:48:03.417Z,1.11
2022-12-08T05:53:05.715Z,1.13
2022-12-08T05:58:13.704Z,1.16
2022-12-08T06:03:18.602Z,1.28
2022-12-08T06:08:20.827Z,1.17
2022-12-08T06:13:23.024Z,1.11
2022-12-08T06:18:32.809Z,1.12
2022-12-08T06:23:35.559Z,1.23
2022-12-08T06:28:38.097Z,1.26
2022-12-08T06:33:40.492Z,1.28
2022-12-08T06:38:43.942Z,1.35
2022-12-08T06:43:46.546Z,1.37
2022-12-08T06:48:50.749Z,1.45
2022-12-08T06:53:52.963Z,1.48
2022-12-08T06:58:55.262Z,1.63
2022-12-08T07:03:57.461Z,1.65
2022-12-08T07:08:59.640Z,1.72
2022-12-08T07:14:01.831Z,1.83
2022-12-08T07:19:03.957Z,1.96
2022-12-08T07:24:06.333Z,2.01
2022-12-08T07:29:10.360Z,2.07
2022-12-08T07:34:13.096Z,2.18
2022-12-08T07:39:15.426Z,2.21
2022-12-08T07:44:17.753Z,2.19
2022-12-08T07:49:19.867Z,2.26
2022-12-08T07:54:22.077Z,2.57
2022-12-08T07:59:24.565Z,2.81
2022-12-08T08:04:26.776Z,2.79
2022-12-08T08:09:28.897Z,2.89
2022-12-08T08:14:31.154Z,3.32
2022-12-08T08:19:33.255Z,3.59
2022-12-08T08:24:37.239Z,3.91
2022-12-08T08:29:42.478Z,4.08
2022-12-08T08:34:44.595Z,4.13
2022-12-08T08:39:46.749Z,4.27
2022-12-08T08:44:48.915Z,4.62
2022-12-08T08:49:51.036Z,4.63
2022-12-08T08:54:53.145Z,4.41
2022-12-08T08:59:55.323Z,4.97
2022-12-08T09:04:57.524Z,4.95
2022-12-08T09:10:01.909Z,4.92
2022-12-08T09:15:05.781Z,5.03
2022-12-08T09:20:08.558Z,4.89
2022-12-08T09:25:10.698Z,4.49
2022-12-08T09:30:13.113Z,4.56
2022-12-08T09:35:15.316Z,4.66
2022-12-08T09:40:20.201Z,4.46
2022-12-08T09:45:24.746Z,4.19
2022-12-08T09:50:37.972Z,4.17
2022-12-08T09:55:48.774Z,4.40
2022-12-08T10:00:51.155Z,4.81
2022-12-08T10:06:10.970Z,4.68
2022-12-08T10:11:24.621Z,4.62
2022-12-08T10:16:42.327Z,5.23
2022-12-08T10:21:45.236Z,5.30
2022-12-08T10:26:47.625Z,5.21
2022-12-08T10:31:49.778Z,5.22
2022-12-08T10:36:58.135Z,5.16
2022-12-08T10:42:02.801Z,5.36
2022-12-08T10:47:13.430Z,5.61
2022-12-08T10:52:25.299Z,5.70
2022-12-08T10:57:27.415Z,5.93
2022-12-08T11:02:29.757Z,6.75
2022-12-08T11:07:32.062Z,6.98
2022-12-08T11:12:36.210Z,7.14
2022-12-08T11:17:41.533Z,7.28
2022-12-08T11:22:45.763Z,6.94
2022-12-08T11:27:50.404Z,6.78
2022-12-08T11:33:00.078Z,6.57
2022-12-08T11:38:20.510Z,6.40
2022-12-08T11:43:48.651Z,6.57
2022-12-08T11:49:05.953Z,6.33
2022-12-08T11:54:17.748Z,6.04
2022-12-08T11:59:26.429Z,5.94
2022-12-08T12:05:02.348Z,6.19
2022-12-08T12:10:23.052Z,6.30
2022-12-08T12:15:46.564Z,6.12
2022-12-08T12:20:51.651Z,5.98
2022-12-08T12:26:02.563Z,5.65
2022-12-08T12:31:16.318Z,5.48
2022-12-08T12:36:18.792Z,5.53
2022-12-08T12:41:28.058Z,5.49
2022-12-08T12:46:38.335Z,5.45
2022-12-08T12:51:47.764Z,5.49
2022-12-08T12:56:53.488Z,5.71
2022-12-08T13:01:56.688Z,6.12
2022-12-08T13:07:00.005Z,6.21
2022-12-08T13:12:10.467Z,6.02
2022-12-08T13:17:16.536Z,6.04
2022-12-08T13:22:46.738Z,5.91
2022-12-08T13:27:54.101Z,5.53
2022-12-08T13:33:18.479Z,5.76
2022-12-08T13:38:26.496Z,5.68
2022-12-08T13:44:20.102Z,5.51
2022-12-08T13:51:15.964Z,5.38
2022-12-08T13:55:26.857Z,5.35
2022-12-08T14:00:13.842Z,5.30
2022-12-08T14:05:20.393Z,5.32
2022-12-08T14:10:32.201Z,5.10
2022-12-08T14:15:38.171Z,4.93
2022-12-08T14:21:12.220Z,4.86
2022-12-08T14:26:06.597Z,4.84
2022-12-08T14:31:09.152Z,4.70
2022-12-08T14:36:15.807Z,4.65
2022-12-08T14:41:27.867Z,4.53
2022-12-08T14:46:30.171Z,4.45
2022-12-08T14:51:33.350Z,4.32
2022-12-08T14:56:43.439Z,4.32
2022-12-08T15:01:48.807Z,4.35
2022-12-08T15:06:59.470Z,4.40
2022-12-08T15:12:07.538Z,4.28
2022-12-08T15:17:30.181Z,4.25
2022-12-08T15:22:32.477Z,4.17
2022-12-08T15:27:42.368Z,4.11
2022-12-08T15:32:52.840Z,4.15
2022-12-08T15:37:54.934Z,4.12
2022-12-08T15:42:57.072Z,4.15
2022-12-08T15:47:59.175Z,4.15
2022-12-08T15:53:01.326Z,4.21
2022-12-08T15:58:51.841Z,4.19
2022-12-08T16:09:06.346Z,4.19
2022-12-08T16:15:22.923Z,4.21
2022-12-08T16:19:36.361Z,4.14
2022-12-08T16:24:38.433Z,4.17
2022-12-08T16:29:46.974Z,4.16
2022-12-08T16:34:50.202Z,4.17
2022-12-08T16:39:54.798Z,4.19
2022-12-08T16:44:56.928Z,4.20
2022-12-08T16:49:59.099Z,4.13
2022-12-08T16:55:01.654Z,4.11
2022-12-08T17:00:07.436Z,3.99
2022-12-08T17:05:13.949Z,3.92
2022-12-08T17:10:19.280Z,3.93
2022-12-08T17:15:24.216Z,3.96
2022-12-08T17:20:28.418Z,3.98
2022-12-08T17:25:30.607Z,4.06
2022-12-08T17:30:32.722Z,4.28
2022-12-08T17:35:35.988Z,4.32
2022-12-08T17:40:38.180Z,4.39
2022-12-08T17:45:44.776Z,4.63
2022-12-08T17:50:47.927Z,4.65
2022-12-08T17:55:54.987Z,4.68
2022-12-08T18:00:57.138Z,4.43
2022-12-08T18:06:08.168Z,4.31
2022-12-08T18:11:21.144Z,4.24
2022-12-08T18:16:26.851Z,4.24
2022-12-08T18:21:29.302Z,4.21
2022-12-08T18:26:31.939Z,4.21
2022-12-08T18:31:34.207Z,4.23
2022-12-08T18:36:36.391Z,4.24
2022-12-08T18:41:38.537Z,4.21
2022-12-08T18:46:40.803Z,4.27
2022-12-08T18:51:43.960Z,4.23
2022-12-08T18:56:46.076Z,4.18
2022-12-08T19:01:48.647Z,4.17
2022-12-08T19:06:51.425Z,4.14
2022-12-08T19:11:53.614Z,4.11
2022-12-08T19:16:57.647Z,4.12
2022-12-08T19:21:59.849Z,4.11
2022-12-08T19:27:05.865Z,4.07
2022-12-08T19:32:08.054Z,4.08
2022-12-08T19:37:12.586Z,4.13
2022-12-08T19:42:37.496Z,4.16
2022-12-08T19:47:40.166Z,4.12
2022-12-08T19:52:43.140Z,4.32
2022-12-08T19:57:45.227Z,4.29
2022-12-08T20:02:47.845Z,4.29
2022-12-08T20:07:50.709Z,4.53
2022-12-08T20:13:12.858Z,4.57
2022-12-08T20:18:16.097Z,4.66
2022-12-08T20:23:20.295Z,4.65
2022-12-08T20:28:23.763Z,4.57
2022-12-08T20:33:26.342Z,4.51
2022-12-08T20:38:29.206Z,4.39
2022-12-08T20:43:31.321Z,4.53
2022-12-08T20:48:33.714Z,4.50
2022-12-08T20:53:35.802Z,4.22
2022-12-08T20:58:37.954Z,4.48
2022-12-08T21:03:40.491Z,4.20
2022-12-08T21:08:42.994Z,4.01
2022-12-08T21:13:45.720Z,4.19
2022-12-08T21:18:47.871Z,4.25
2022-12-08T21:23:54.198Z,4.22
2022-12-08T21:28:58.906Z,4.13
2022-12-08T21:34:02.174Z,4.04
2022-12-08T21:39:11.220Z,3.99
2022-12-08T21:44:15.604Z,4.07
2022-12-08T21:49:20.828Z,4.21
2022-12-08T21:54:23.037Z,4.20
2022-12-08T21:59:25.191Z,4.20
2022-12-08T22:04:28.039Z,4.15
2022-12-08T22:09:30.547Z,4.13
2022-12-08T22:14:32.989Z,4.25
2022-12-08T22:19:35.548Z,4.09
2022-12-08T22:24:37.846Z,4.15
2022-12-08T22:29:39.975Z,3.99
2022-12-08T22:34:42.204Z,4.31
2022-12-08T22:39:44.382Z,4.39
2022-12-08T22:44:46.737Z,4.09
2022-12-08T22:49:49.285Z,4.19
2022-12-08T22:54:51.366Z,4.20
2022-12-08T22:59:53.724Z,4.17
2022-12-08T23:04:56.881Z,4.33
2022-12-08T23:10:02.217Z,4.24
2022-12-08T23:15:05.061Z,4.36
2022-12-08T23:20:08.553Z,4.44
2022-12-08T23:25:10.880Z,4.20
2022-12-08T23:30:14.008Z,3.96
2022-12-08T23:35:16.230Z,3.84
2022-12-08T23:40:18.348Z,3.79
2022-12-08T23:45:20.475Z,3.76
2022-12-08T23:50:22.971Z,3.70
2022-12-08T23:55:25.153Z,3.71
